Time;durP1;ratioP1;P1;durP2;ratioP2;P2;SDS_P1;SDS_P2;PMS_P1;PMS_P2;Temp;Humidity;BMP_temperature;BMP_pressure;BME280_temperature;BME280_humidity;BME280_pressure;Samples;Min_cycle;Max_cycle;Signal;HPM_P1;HPM_P2
2023/12/02 00:00:49;;;;;;;;;;;;;;;7.65;100.00;98466.63;6276368;22;19919;-94
2023/12/02 00:03:14;;;;;;;;;;;;;;;7.64;100.00;98468.41;6248929;22;19915;-91
2023/12/02 00:05:40;;;;;;;;;;;;;;;7.65;100.00;98471.88;6276822;22;19949;-86
2023/12/02 00:08:05;;;;;;;;;;;;;;;7.64;100.00;98470.16;6275609;22;20278;-87
2023/12/02 00:10:30;;;;;;;;;;;;;;;7.62;100.00;98470.25;6275627;22;19934;-85
2023/12/02 00:12:55;;;;;;;;;;;;;;;7.65;100.00;98471.88;6274027;22;19954;-92
2023/12/02 00:15:21;;;;;;;;;;;;;;;7.61;100.00;98465.06;6275385;22;20212;-86
2023/12/02 00:17:46;;;;;;;;;;;;;;;7.63;100.00;98468.47;6248385;22;20200;-83
2023/12/02 00:20:11;;;;;;;;;;;;;;;7.63;100.00;98469.31;6275295;22;19912;-90
2023/12/02 00:22:47;;;;;;;;;;;;;;;7.63;100.00;98471.13;6248757;22;19911;-92
2023/12/02 00:25:12;;;;;;;;;;;;;;;7.61;100.00;98468.56;6248516;22;19918;-85
2023/12/02 00:27:38;;;;;;;;;;;;;;;7.61;100.00;98471.19;6247471;22;19912;-89
2023/12/02 00:30:03;;;;;;;;;;;;;;;7.65;100.00;98466.63;6248784;22;19990;-86
2023/12/02 00:32:29;;;;;;;;;;;;;;;7.63;100.00;98473.75;6248026;22;20275;-84
2023/12/02 00:34:54;;;;;;;;;;;;;;;7.63;100.00;98468.47;6248168;22;19969;-91
2023/12/02 00:37:22;;;;;;;;;;;;;;;7.63;100.00;98471.13;6249032;22;19918;-92
2023/12/02 00:39:47;;;;;;;;;;;;;;;7.63;100.00;98473.75;6248008;22;20510;-87
2023/12/02 00:42:12;;;;;;;;;;;;;;;7.62;100.00;98477.31;6276239;22;19912;-87
2023/12/02 00:44:37;;;;;;;;;;;;;;;7.63;100.00;98479.03;6277168;22;20331;-86
2023/12/02 00:47:03;;;;;;;;;;;;;;;7.63;100.00;98469.31;6277567;22;19911;-86
2023/12/02 00:49:28;;;;;;;;;;;;;;;7.63;100.00;98479.03;6250432;22;19915;-83
2023/12/02 00:51:53;;;;;;;;;;;;;;;7.61;100.00;98471.19;6276926;22;19907;-83
2023/12/02 00:54:18;;;;;;;;;;;;;;;7.63;100.00;98473.75;6277103;22;19918;-81
2023/12/02 00:56:44;;;;;;;;;;;;;;;7.63;100.00;98479.03;6277455;22;20323;-89
2023/12/02 00:59:09;;;;;;;;;;;;;;;7.63;100.00;98473.75;6275522;22;19912;-84
2023/12/02 01:01:34;;;;;;;;;;;;;;;7.62;100.00;98482.59;6277016;22;19943;-86
2023/12/02 01:04:02;;;;;;;;;;;;;;;7.61;100.00;98486.13;6277719;22;20320;-90
2023/12/02 01:06:28;;;;;;;;;;;;;;;7.61;100.00;98481.75;6249786;22;19922;-83
2023/12/02 01:08:53;;;;;;;;;;;;;;;7.61;100.00;98486.13;6276753;22;19912;-87
2023/12/02 01:11:18;;;;;;;;;;;;;;;7.61;100.00;98481.75;6277275;22;19911;-83
2023/12/02 01:13:43;;;;;;;;;;;;;;;7.61;100.00;98484.38;6275621;22;19911;-90
2023/12/02 01:16:09;;;;;;;;;;;;;;;7.63;100.00;98490.41;6277034;22;19941;-83
2023/12/02 01:18:34;;;;;;;;;;;;;;;7.63;100.00;98498.31;6277489;22;19937;-86
2023/12/02 01:20:59;;;;;;;;;;;;;;;7.64;100.00;98499.16;6250257;22;19915;-91
2023/12/02 01:23:25;;;;;;;;;;;;;;;7.66;100.00;98492.06;6277344;22;19937;-85
2023/12/02 01:25:50;;;;;;;;;;;;;;;7.66;100.00;98494.69;6277110;22;19957;-85
2023/12/02 01:28:15;;;;;;;;;;;;;;;7.68;100.00;98502.53;6276903;22;20270;-85
2023/12/02 01:30:41;;;;;;;;;;;;;;;7.69;100.00;98504.22;6277068;22;19919;-86
2023/12/02 01:33:06;;;;;;;;;;;;;;;7.68;100.00;98502.53;6277112;22;19911;-87
2023/12/02 01:35:31;;;;;;;;;;;;;;;7.70;100.00;98513.84;6249909;22;19915;-85
2023/12/02 01:37:57;;;;;;;;;;;;;;;7.67;100.00;98512.19;6277385;22;20012;-84
2023/12/02 01:40:22;;;;;;;;;;;;;;;7.69;100.00;98515.63;6250226;22;19911;-85
2023/12/02 01:42:47;;;;;;;;;;;;;;;7.69;100.00;98517.38;6275606;22;19915;-87
2023/12/02 01:45:12;;;;;;;;;;;;;;;7.71;100.00;98519.03;6251148;22;20308;-88
2023/12/02 01:47:38;;;;;;;;;;;;;;;7.70;100.00;98513.84;6276995;22;19911;-85
2023/12/02 01:50:04;;;;;;;;;;;;;;;7.70;100.00;98519.09;6276883;22;19957;-85
2023/12/02 01:52:29;;;;;;;;;;;;;;;7.70;100.00;98522.59;6276860;22;19943;-87
2023/12/02 01:54:54;;;;;;;;;;;;;;;7.71;100.00;98524.31;6277232;22;20303;-86
2023/12/02 01:57:20;;;;;;;;;;;;;;;7.72;100.00;98533.06;6250104;22;19915;-85
2023/12/02 01:59:54;;;;;;;;;;;;;;;7.74;100.00;98524.16;6275447;22;20323;-87
2023/12/02 02:02:19;;;;;;;;;;;;;;;7.74;100.00;98524.16;6275984;22;19942;-85
2023/12/02 06:19:52;;;;;;;;;;;;;;;7.67;100.00;98812.78;6254576;22;19927;-84
2023/12/02 06:22:17;;;;;;;;;;;;;;;7.66;100.00;98816.34;6249781;22;19915;-85
2023/12/02 06:24:42;;;;;;;;;;;;;;;7.65;100.00;98819.91;6277017;22;19945;-83
2023/12/02 06:27:08;;;;;;;;;;;;;;;7.66;100.00;98815.47;6277062;22;20342;-83
2023/12/02 06:29:33;;;;;;;;;;;;;;;7.62;100.00;98826.16;6277059;22;19915;-84
2023/12/02 06:31:58;;;;;;;;;;;;;;;7.65;100.00;98825.19;6276623;22;20238;-84
2023/12/02 06:34:23;;;;;;;;;;;;;;;7.65;100.00;98835.72;6247862;22;19911;-84
2023/12/02 06:36:48;;;;;;;;;;;;;;;7.67;100.00;98835.66;6276618;22;19911;-84
2023/12/02 06:39:14;;;;;;;;;;;;;;;7.69;100.00;98834.66;6276050;22;19946;-82
2023/12/02 06:41:41;;;;;;;;;;;;;;;7.67;100.00;98843.56;6277089;22;19922;-83
2023/12/02 06:44:06;;;;;;;;;;;;;;;7.68;100.00;98847.91;6276861;22;19911;-85
2023/12/02 06:46:31;;;;;;;;;;;;;;;7.68;100.00;98861.09;6249425;22;20336;-83
2023/12/02 06:48:57;;;;;;;;;;;;;;;7.65;100.00;98862.09;6247767;22;19934;-83
2023/12/02 06:51:28;;;;;;;;;;;;;;;7.67;100.00;98864.66;6249372;22;19922;-83
2023/12/02 06:53:53;;;;;;;;;;;;;;;7.66;100.00;98863.81;6276338;22;19945;-83
2023/12/02 06:56:19;;;;;;;;;;;;;;;7.67;100.00;98869.94;6276909;22;20261;-82
2023/12/02 06:58:44;;;;;;;;;;;;;;;7.67;100.00;98875.19;6276382;22;19911;-82
2023/12/02 07:01:09;;;;;;;;;;;;;;;7.67;100.00;98885.75;6276287;22;19916;-82
2023/12/02 07:03:37;;;;;;;;;;;;;;;7.68;100.00;98900.66;6274727;22;20153;-82
2023/12/02 07:06:02;;;;;;;;;;;;;;;7.68;100.00;98904.13;6276645;22;20323;-82
2023/12/02 07:08:27;;;;;;;;;;;;;;;7.66;100.00;98907.75;6249166;22;19919;-82
2023/12/02 07:10:53;;;;;;;;;;;;;;;7.67;100.00;98912.97;6249651;22;20327;-82
2023/12/02 07:13:18;;;;;;;;;;;;;;;7.67;100.00;98912.97;6276325;22;20341;-83
2023/12/02 07:15:43;;;;;;;;;;;;;;;7.69;100.00;98921.69;6248925;22;20287;-83
2023/12/02 07:18:11;;;;;;;;;;;;;;;7.69;100.00;98918.16;6276235;22;20231;-90
2023/12/02 07:20:36;;;;;;;;;;;;;;;7.70;100.00;98920.75;6247204;22;19922;-84
2023/12/02 07:23:02;;;;;;;;;;;;;;;7.69;100.00;98932.22;6276153;22;19911;-83
2023/12/02 07:25:28;;;;;;;;;;;;;;;7.69;100.00;98937.50;6276219;22;20315;-83
2023/12/02 07:27:53;;;;;;;;;;;;;;;7.68;100.00;98941.06;6249089;22;19920;-84
2023/12/02 07:30:18;;;;;;;;;;;;;;;7.68;100.00;98938.41;6276078;22;19919;-83
2023/12/02 07:32:44;;;;;;;;;;;;;;;7.69;100.00;98948.06;6276150;22;19911;-84
2023/12/02 07:35:14;;;;;;;;;;;;;;;7.67;100.00;98941.13;6274279;22;19912;-88
2023/12/02 07:37:39;;;;;;;;;;;;;;;7.66;100.00;98953.47;6276081;22;19916;-84
2023/12/02 07:40:05;;;;;;;;;;;;;;;7.68;100.00;98951.59;6275955;22;19969;-85
2023/12/02 07:42:30;;;;;;;;;;;;;;;7.68;100.00;98961.31;6276022;22;19915;-84
2023/12/02 07:44:55;;;;;;;;;;;;;;;7.67;100.00;98965.69;6275864;22;19922;-84
2023/12/02 07:47:23;;;;;;;;;;;;;;;7.68;100.00;98972.69;6276267;22;19911;-84
2023/12/02 07:49:48;;;;;;;;;;;;;;;7.67;100.00;98970.13;6274275;22;19911;-85
2023/12/02 07:52:13;;;;;;;;;;;;;;;7.68;100.00;98979.75;6276187;22;19933;-84
2023/12/02 07:54:39;;;;;;;;;;;;;;;7.67;100.00;98981.53;6276345;22;20237;-84
2023/12/02 07:57:04;;;;;;;;;;;;;;;7.69;100.00;98979.69;6276062;22;19911;-85
2023/12/02 07:59:29;;;;;;;;;;;;;;;7.68;100.00;98983.25;6275782;22;19949;-84
2023/12/02 08:01:55;;;;;;;;;;;;;;;7.65;100.00;98983.38;6248747;22;19976;-84
2023/12/02 08:04:20;;;;;;;;;;;;;;;7.64;100.00;98987.81;6274238;22;19915;-84
2023/12/02 08:06:45;;;;;;;;;;;;;;;7.66;100.00;98986.84;6275941;22;20337;-85
2023/12/02 08:09:14;;;;;;;;;;;;;;;7.64;100.00;98994.84;6275805;22;19912;-84
2023/12/02 08:11:40;;;;;;;;;;;;;;;7.66;100.00;99000.03;6276235;22;19916;-84
2023/12/02 08:14:06;;;;;;;;;;;;;;;7.65;100.00;98991.28;6275729;22;20227;-84
2023/12/02 08:16:31;;;;;;;;;;;;;;;7.64;100.00;98997.47;6248596;22;20337;-84
2023/12/02 08:18:56;;;;;;;;;;;;;;;7.65;100.00;99004.47;6247098;22;19911;-84
2023/12/02 08:58:07;;;;;;;;;;;;;;;7.59;100.00;99039.84;6275829;22;20365;-89
2023/12/02 09:00:33;;;;;;;;;;;;;;;7.61;100.00;99045.06;6248535;22;19915;-84
2023/12/02 09:02:58;;;;;;;;;;;;;;;7.60;100.00;99038.94;6276661;22;19912;-84
2023/12/02 09:05:24;;;;;;;;;;;;;;;7.64;100.00;99045.81;6250460;22;19912;-85
2023/12/02 09:07:49;;;;;;;;;;;;;;;7.62;100.00;99046.78;6250775;22;19918;-84
2023/12/02 09:10:14;;;;;;;;;;;;;;;7.64;100.00;99044.94;6275714;22;19915;-84
2023/12/02 09:12:39;;;;;;;;;;;;;;;7.63;100.00;99059.91;6249169;22;20327;-83
2023/12/02 09:15:19;;;;;;;;;;;;;;;7.65;100.00;99059.84;6277069;22;19945;-87
2023/12/02 09:18:03;;;;;;;;;;;;;;;7.62;100.00;99060.81;6250733;22;19942;-82
2023/12/02 09:20:35;;;;;;;;;;;;;;;7.66;100.00;99063.31;6277294;22;19943;-83
2023/12/02 09:23:01;;;;;;;;;;;;;;;7.64;100.00;99076.56;6277913;22;19964;-83
2023/12/02 09:25:27;;;;;;;;;;;;;;;7.66;100.00;99069.47;6275728;22;19919;-82
2023/12/02 09:28:10;;;;;;;;;;;;;;;7.67;100.00;99080.88;6277364;22;20520;-86
2023/12/02 09:30:37;;;;;;;;;;;;;;;7.67;100.00;99086.16;6277153;22;19911;-84
2023/12/02 09:33:05;;;;;;;;;;;;;;;7.64;100.00;99092.41;6277419;22;20234;-87
2023/12/02 09:35:33;;;;;;;;;;;;;;;7.65;100.00;99088.84;6277200;22;19937;-89
2023/12/02 09:37:59;;;;;;;;;;;;;;;7.66;100.00;99095.84;6277378;22;19942;-85
2023/12/02 09:40:28;;;;;;;;;;;;;;;7.67;100.00;99094.06;6275920;22;19915;-83
2023/12/02 09:42:55;;;;;;;;;;;;;;;7.68;100.00;99101.06;6277279;22;19915;-84
2023/12/02 09:45:22;;;;;;;;;;;;;;;7.67;100.00;99112.50;6276945;22;19915;-83
2023/12/02 09:48:08;;;;;;;;;;;;;;;7.67;100.00;99107.25;6249926;22;19922;-83
2023/12/02 09:50:38;;;;;;;;;;;;;;;7.67;100.00;99118.63;6255179;22;19915;-83
2023/12/02 09:53:13;;;;;;;;;;;;;;;7.66;100.00;99122.22;6277290;22;19916;-84
2023/12/02 09:55:45;;;;;;;;;;;;;;;7.65;100.00;99112.56;6247739;22;19915;-83
2023/12/02 09:58:13;;;;;;;;;;;;;;;7.68;100.00;99114.25;6249800;22;20289;-83
2023/12/02 10:00:43;;;;;;;;;;;;;;;7.67;100.00;99118.63;6277356;22;20308;-85
2023/12/02 10:03:11;;;;;;;;;;;;;;;7.68;100.00;99120.38;6249613;22;19911;-83
2023/12/02 10:05:51;;;;;;;;;;;;;;;7.68;100.00;99119.50;6249544;22;20025;-83
2023/12/02 10:08:24;;;;;;;;;;;;;;;7.68;100.00;99120.38;6249433;22;19990;-84
2023/12/02 10:11:13;;;;;;;;;;;;;;;7.68;100.00;99123.00;6248202;22;19911;-84
2023/12/02 10:13:52;;;;;;;;;;;;;;;7.68;100.00;99125.63;6276873;22;19915;-83
2023/12/02 10:16:20;;;;;;;;;;;;;;;7.69;100.00;99132.63;6276436;22;19915;-82
2023/12/02 10:18:52;;;;;;;;;;;;;;;7.71;100.00;99137.84;6249736;22;20338;-83
2023/12/02 10:21:19;;;;;;;;;;;;;;;7.70;100.00;99142.25;6276660;22;19915;-83
2023/12/02 10:23:51;;;;;;;;;;;;;;;7.72;100.00;99144.81;6276858;22;20392;-82
2023/12/02 10:26:24;;;;;;;;;;;;;;;7.69;100.00;99140.56;6275139;22;20246;-82
2023/12/02 10:28:50;;;;;;;;;;;;;;;7.71;100.00;99141.34;6276742;22;19916;-84
2023/12/02 10:31:22;;;;;;;;;;;;;;;7.73;100.00;99144.75;6276491;22;19965;-83
2023/12/02 10:33:54;;;;;;;;;;;;;;;7.72;100.00;99148.34;6276395;22;19922;-83
2023/12/02 10:36:20;;;;;;;;;;;;;;;7.72;100.00;99155.38;6276390;22;19931;-82
2023/12/02 10:38:46;;;;;;;;;;;;;;;7.74;100.00;99162.31;6276866;22;19911;-83
2023/12/02 10:41:14;;;;;;;;;;;;;;;7.75;100.00;99164.00;6248019;22;19954;-84
2023/12/02 10:43:41;;;;;;;;;;;;;;;7.74;100.00;99162.31;6276315;22;19915;-83
2023/12/02 10:46:07;;;;;;;;;;;;;;;7.75;100.00;99163.16;6276769;22;19911;-82
2023/12/02 10:48:34;;;;;;;;;;;;;;;7.75;100.00;99165.78;6276539;22;19919;-83
2023/12/02 10:51:00;;;;;;;;;;;;;;;7.76;100.00;99164.88;6249383;22;20388;-82
2023/12/02 10:53:26;;;;;;;;;;;;;;;7.77;100.00;99175.38;6276448;22;19915;-82
2023/12/02 10:55:57;;;;;;;;;;;;;;;7.76;100.00;99178.06;6274623;22;20323;-82
2023/12/02 10:58:24;;;;;;;;;;;;;;;7.75;100.00;99179.81;6276594;22;19980;-81
2023/12/02 11:00:54;;;;;;;;;;;;;;;7.75;100.00;99185.09;6276682;22;20246;-83
2023/12/02 11:03:37;;;;;;;;;;;;;;;7.76;100.00;99185.97;6276558;22;19967;-82
2023/12/02 11:06:35;;;;;;;;;;;;;;;7.76;100.00;99185.97;6276599;22;19919;-84
2023/12/02 11:09:16;;;;;;;;;;;;;;;7.77;100.00;99185.91;6182102;22;19912;-82
2023/12/02 11:11:44;;;;;;;;;;;;;;;7.78;100.00;99184.97;6276227;22;19915;-82
2023/12/02 11:14:14;;;;;;;;;;;;;;;7.79;100.00;99191.13;6276108;22;19982;-83
2023/12/02 11:16:50;;;;;;;;;;;;;;;7.77;100.00;99196.47;6276229;22;19927;-82
2023/12/02 11:19:36;;;;;;;;;;;;;;;7.78;100.00;99189.41;6275792;22;19934;-82
2023/12/02 11:22:20;;;;;;;;;;;;;;;7.76;100.00;99191.25;6276214;22;19994;-82
2023/12/02 11:24:45;;;;;;;;;;;;;;;7.76;100.00;99192.09;6274452;22;19919;-81
2023/12/02 11:27:19;;;;;;;;;;;;;;;7.76;100.00;99192.09;6276220;22;19911;-83
2023/12/02 11:29:57;;;;;;;;;;;;;;;7.78;100.00;99195.53;6275919;22;19929;-83
2023/12/02 11:32:31;;;;;;;;;;;;;;;7.77;100.00;99191.19;6276204;22;20387;-82
2023/12/02 11:35:05;;;;;;;;;;;;;;;7.77;100.00;99198.22;6275873;22;19915;-82
2023/12/02 11:37:48;;;;;;;;;;;;;;;7.78;100.00;99200.81;6275933;22;20323;-82
2023/12/02 11:40:19;;;;;;;;;;;;;;;7.77;100.00;99201.75;6274519;22;20331;-81
2023/12/02 11:42:50;;;;;;;;;;;;;;;7.80;100.00;99209.53;6275941;22;19911;-84
2023/12/02 11:45:19;;;;;;;;;;;;;;;7.79;100.00;99215.72;6275919;22;19915;-81
2023/12/02 11:48:03;;;;;;;;;;;;;;;7.78;100.00;99211.34;6275843;22;19915;-82
2023/12/02 11:50:28;;;;;;;;;;;;;;;7.80;100.00;99211.28;6275607;22;19965;-82
2023/12/02 11:53:12;;;;;;;;;;;;;;;7.80;100.00;99217.44;6248778;22;20281;-83
2023/12/02 11:55:58;;;;;;;;;;;;;;;7.82;100.00;99218.22;6274153;22;19916;-82
2023/12/02 11:58:42;;;;;;;;;;;;;;;7.84;100.00;99230.50;6244499;23;19942;-82
2023/12/02 12:01:09;;;;;;;;;;;;;;;7.81;100.00;99229.69;6218461;23;19912;-83
2023/12/02 12:03:37;;;;;;;;;;;;;;;7.83;100.00;99234.91;6245082;23;20286;-82
2023/12/02 12:06:22;;;;;;;;;;;;;;;7.84;100.00;99241.91;6245303;23;19915;-80
2023/12/02 12:09:00;;;;;;;;;;;;;;;7.83;100.00;99242.81;6245397;23;19912;-83
2023/12/02 12:11:25;;;;;;;;;;;;;;;7.85;100.00;99248.91;6244098;23;20316;-83
2023/12/02 12:13:51;;;;;;;;;;;;;;;7.87;100.00;99248.84;6218387;23;19912;-83
2023/12/02 12:16:16;;;;;;;;;;;;;;;7.86;100.00;99249.75;6218143;23;19962;-82
2023/12/02 12:18:42;;;;;;;;;;;;;;;7.87;100.00;99254.97;6245190;23;19912;-82
2023/12/02 12:21:11;;;;;;;;;;;;;;;7.87;100.00;99256.78;6245094;23;19915;-82
2023/12/02 12:23:37;;;;;;;;;;;;;;;7.32;100.00;99254.50;6218120;23;19915;-81
2023/12/02 12:26:03;;;;;;;;;;;;;;;6.06;100.00;99265.06;6243489;23;19946;-82
2023/12/02 12:28:30;;;;;;;;;;;;;;;5.72;100.00;99269.59;6244960;23;19912;-81
2023/12/02 12:30:56;;;;;;;;;;;;;;;5.35;100.00;99273.34;6245091;23;19912;-82
2023/12/02 12:33:22;;;;;;;;;;;;;;;5.21;100.00;99281.63;6245230;23;19918;-83
2023/12/02 12:35:47;;;;;;;;;;;;;;;5.09;100.00;99284.63;6244696;23;19919;-83
2023/12/02 12:38:14;;;;;;;;;;;;;;;4.95;100.00;99292.03;6245824;23;19916;-82
2023/12/02 12:40:40;;;;;;;;;;;;;;;4.89;100.00;99291.25;6245326;23;19915;-82
2023/12/02 12:43:09;;;;;;;;;;;;;;;4.77;100.00;99296.88;6220244;23;19964;-82
2023/12/02 12:45:34;;;;;;;;;;;;;;;4.67;100.00;99290.97;6246972;23;19915;-80
2023/12/02 12:48:01;;;;;;;;;;;;;;;4.61;100.00;99304.28;6220542;23;19951;-81
2023/12/02 12:50:28;;;;;;;;;;;;;;;4.48;100.00;99303.75;6247237;23;20323;-82
2023/12/02 12:52:59;;;;;;;;;;;;;;;4.36;100.00;99306.69;6246892;23;19916;-81
2023/12/02 12:55:26;;;;;;;;;;;;;;;4.29;100.00;99312.97;6245261;23;19947;-84
2023/12/02 12:57:57;;;;;;;;;;;;;;;4.34;100.00;99318.94;6219832;23;19966;-82
2023/12/02 13:00:27;;;;;;;;;;;;;;;4.96;100.00;99318.22;6246927;23;19994;-81
2023/12/02 13:03:18;;;;;;;;;;;;;;;5.83;100.00;99312.19;6247293;23;19922;-81
2023/12/02 13:05:47;;;;;;;;;;;;;;;6.26;100.00;99315.25;6188887;23;19998;-82
2023/12/02 13:08:25;;;;;;;;;;;;;;;6.45;100.00;99318.13;6246839;23;19915;-82
2023/12/02 13:10:53;;;;;;;;;;;;;;;6.62;100.00;99324.59;6245306;23;20247;-82
2023/12/02 13:13:19;;;;;;;;;;;;;;;6.69;100.00;99326.97;6246847;23;19912;-82
2023/12/02 13:15:45;;;;;;;;;;;;;;;6.76;100.00;99324.13;6246296;23;20299;-81
2023/12/02 13:18:10;;;;;;;;;;;;;;;6.83;100.00;99328.25;6246645;23;19920;-82
2023/12/02 13:20:40;;;;;;;;;;;;;;;6.88;100.00;99340.38;6246722;23;19917;-81
2023/12/02 13:23:06;;;;;;;;;;;;;;;6.95;100.00;99341.00;6246339;23;19915;-82
2023/12/02 13:25:36;;;;;;;;;;;;;;;6.99;100.00;99337.34;6245127;23;19911;-82
2023/12/02 13:28:01;;;;;;;;;;;;;;;7.03;100.00;99348.63;6246633;23;19915;-80
2023/12/02 13:30:28;;;;;;;;;;;;;;;7.07;100.00;99351.13;6246488;23;19975;-81
2023/12/02 13:32:54;;;;;;;;;;;;;;;7.12;100.00;99358.84;6246888;23;19969;-82
2023/12/02 13:35:30;;;;;;;;;;;;;;;7.16;100.00;99360.44;6246484;23;19912;-81
2023/12/02 13:38:14;;;;;;;;;;;;;;;7.19;100.00;99359.50;6246349;23;19922;-81
2023/12/02 13:40:48;;;;;;;;;;;;;;;7.21;100.00;99368.19;6244680;23;19911;-80
2023/12/02 13:43:15;;;;;;;;;;;;;;;7.22;100.00;99368.16;6246454;23;20290;-82
2023/12/02 13:45:41;;;;;;;;;;;;;;;7.24;100.00;99373.38;6219802;23;19911;-83
2023/12/02 13:48:26;;;;;;;;;;;;;;;7.27;100.00;99367.97;6246075;23;19938;-82
2023/12/02 13:51:05;;;;;;;;;;;;;;;7.26;100.00;99367.13;6245214;23;19961;-85
2023/12/02 13:53:36;;;;;;;;;;;;;;;7.29;100.00;99374.06;6219791;23;19941;-84
2023/12/02 13:56:12;;;;;;;;;;;;;;;7.31;100.00;99379.25;6221127;22;19911;-82
2023/12/02 13:58:41;;;;;;;;;;;;;;;7.34;100.00;99380.03;6276866;22;19912;-84
2023/12/02 14:01:24;;;;;;;;;;;;;;;7.35;100.00;99391.44;6277287;22;19915;-83
2023/12/02 14:03:58;;;;;;;;;;;;;;;7.38;100.00;99379.00;6276803;22;19942;-82
2023/12/02 14:06:28;;;;;;;;;;;;;;;7.38;100.00;99394.81;6277288;22;19915;-82
2023/12/02 14:08:55;;;;;;;;;;;;;;;7.39;100.00;99403.59;6277487;22;20230;-82
2023/12/02 14:11:36;;;;;;;;;;;;;;;7.40;100.00;99405.31;6248042;22;20337;-84
2023/12/02 14:14:07;;;;;;;;;;;;;;;7.41;100.00;99407.88;6277144;22;19943;-82
2023/12/02 14:16:54;;;;;;;;;;;;;;;7.45;100.00;99413.91;6276713;22;19994;-83
2023/12/02 14:19:43;;;;;;;;;;;;;;;7.45;100.00;99420.06;6276843;22;19965;-81
2023/12/02 14:22:23;;;;;;;;;;;;;;;7.44;100.00;99418.31;6276700;22;19940;-84
2023/12/02 14:25:01;;;;;;;;;;;;;;;7.48;100.00;99426.97;6274898;22;19923;-82
2023/12/02 14:27:33;;;;;;;;;;;;;;;7.48;100.00;99429.59;6249608;22;20033;-82
2023/12/02 14:30:10;;;;;;;;;;;;;;;7.49;100.00;99431.34;6276674;22;20334;-83
2023/12/02 14:32:42;;;;;;;;;;;;;;;7.51;100.00;99445.31;6276598;22;20002;-82
2023/12/02 14:35:13;;;;;;;;;;;;;;;7.52;100.00;99446.19;6276509;22;19954;-82
2023/12/02 14:37:41;;;;;;;;;;;;;;;7.52;100.00;99452.31;6276572;22;19911;-82
2023/12/02 14:40:12;;;;;;;;;;;;;;;7.55;100.00;99459.28;6274924;22;19918;-82
2023/12/02 14:42:57;;;;;;;;;;;;;;;7.56;100.00;99463.63;6249481;22;20014;-82
2023/12/02 14:45:22;;;;;;;;;;;;;;;7.56;100.00;99464.50;6249776;22;20239;-81
2023/12/02 14:47:51;;;;;;;;;;;;;;;7.57;100.00;99475.88;6276373;22;19915;-82
2023/12/02 14:50:16;;;;;;;;;;;;;;;7.61;100.00;99482.75;6276532;22;19907;-82
2023/12/02 14:52:42;;;;;;;;;;;;;;;7.60;100.00;99478.41;6249246;22;20334;-82
2023/12/02 14:55:09;;;;;;;;;;;;;;;7.60;100.00;99488.97;6274784;22;19915;-82
2023/12/02 14:57:35;;;;;;;;;;;;;;;7.61;100.00;99496.81;6249069;22;19916;-86
2023/12/02 15:00:00;;;;;;;;;;;;;;;7.61;100.00;99493.31;6276134;22;19930;-84
2023/12/02 15:02:40;;;;;;;;;;;;;;;7.61;100.00;99506.50;6249333;22;19911;-83
2023/12/02 15:05:06;;;;;;;;;;;;;;;7.62;100.00;99502.94;6244966;22;20219;-83
2023/12/02 15:07:32;;;;;;;;;;;;;;;7.65;100.00;99516.03;6276412;22;19911;-82
2023/12/02 15:09:58;;;;;;;;;;;;;;;7.64;100.00;99522.22;6274802;22;19912;-84
2023/12/02 15:12:23;;;;;;;;;;;;;;;7.66;100.00;99527.44;6249289;22;19911;-82
2023/12/02 15:14:49;;;;;;;;;;;;;;;7.66;100.00;99533.59;6248937;22;19922;-83
2023/12/02 15:17:14;;;;;;;;;;;;;;;7.67;100.00;99535.28;6249273;22;19934;-83
2023/12/02 15:19:43;;;;;;;;;;;;;;;7.68;100.00;99531.75;6249087;22;19950;-83
2023/12/02 15:22:08;;;;;;;;;;;;;;;7.68;100.00;99534.38;6276306;22;19911;-83
2023/12/02 15:24:35;;;;;;;;;;;;;;;7.70;100.00;99534.34;6247431;22;19912;-84
2023/12/02 15:27:00;;;;;;;;;;;;;;;7.70;100.00;99539.59;6276377;22;19911;-83
2023/12/02 15:29:25;;;;;;;;;;;;;;;7.69;100.00;99537.88;6276112;22;19981;-83
2023/12/02 15:31:51;;;;;;;;;;;;;;;7.72;100.00;99543.03;6248977;22;19918;-82
2023/12/02 15:34:16;;;;;;;;;;;;;;;7.70;100.00;99550.16;6276051;22;19918;-83
2023/12/02 15:36:42;;;;;;;;;;;;;;;7.71;100.00;99558.00;6248997;22;19918;-83
2023/12/02 15:39:08;;;;;;;;;;;;;;;7.72;100.00;99565.03;6274798;22;19908;-83
2023/12/02 15:41:33;;;;;;;;;;;;;;;7.72;100.00;99565.03;6248972;22;19986;-83
2023/12/02 15:43:59;;;;;;;;;;;;;;;7.71;100.00;99573.84;6248891;22;19911;-83
2023/12/02 15:46:24;;;;;;;;;;;;;;;7.73;100.00;99581.69;6276015;22;20041;-83
2023/12/02 15:48:50;;;;;;;;;;;;;;;7.72;100.00;99590.50;6249126;22;20208;-84
2023/12/02 15:51:16;;;;;;;;;;;;;;;7.71;100.00;99594.94;6248767;22;19907;-83
2023/12/02 15:53:41;;;;;;;;;;;;;;;7.75;100.00;99604.44;6275925;22;19934;-82
2023/12/02 15:56:07;;;;;;;;;;;;;;;7.76;100.00;99615.88;6247079;22;19994;-81
2023/12/02 15:58:32;;;;;;;;;;;;;;;7.77;100.00;99618.47;6275741;22;19916;-84
2023/12/02 16:01:01;;;;;;;;;;;;;;;7.77;100.00;99621.09;6275869;22;19953;-83
2023/12/02 16:03:26;;;;;;;;;;;;;;;7.80;100.00;99625.41;6276093;22;20273;-83
2023/12/02 16:05:53;;;;;;;;;;;;;;;7.78;100.00;99625.44;6275883;22;19919;-84
2023/12/02 16:08:22;;;;;;;;;;;;;;;7.80;100.00;99636.84;6275886;22;19918;-83
2023/12/02 16:10:58;;;;;;;;;;;;;;;7.80;100.00;99631.56;6274177;22;19911;-83
2023/12/02 16:13:23;;;;;;;;;;;;;;;7.80;100.00;99636.84;6275893;22;19930;-83
2023/12/02 16:15:48;;;;;;;;;;;;;;;7.79;100.00;99637.72;6248781;22;19911;-83
2023/12/02 16:18:14;;;;;;;;;;;;;;;7.80;100.00;99639.47;6248637;22;20288;-83
2023/12/02 16:20:39;;;;;;;;;;;;;;;7.81;100.00;99642.97;6275674;22;19947;-84
2023/12/02 16:23:04;;;;;;;;;;;;;;;7.81;100.00;99640.31;6275592;22;19939;-84
2023/12/02 16:25:32;;;;;;;;;;;;;;;7.82;100.00;99642.91;6274238;22;19911;-84
2023/12/02 16:27:58;;;;;;;;;;;;;;;7.84;100.00;99647.28;6276383;22;20267;-90
2023/12/02 16:30:23;;;;;;;;;;;;;;;7.84;100.00;99647.28;6248929;22;19912;-84
2023/12/02 16:32:49;;;;;;;;;;;;;;;7.85;100.00;99652.50;6275599;22;19911;-85
2023/12/02 16:35:16;;;;;;;;;;;;;;;7.84;100.00;99658.69;6248067;22;19919;-83
2023/12/02 16:37:42;;;;;;;;;;;;;;;7.85;100.00;99662.19;6275794;22;19943;-83
2023/12/02 16:40:07;;;;;;;;;;;;;;;7.84;100.00;99663.97;6274028;22;20327;-85
2023/12/02 16:42:33;;;;;;;;;;;;;;;7.85;100.00;99672.72;6247816;22;19915;-84
2023/12/02 16:45:00;;;;;;;;;;;;;;;7.87;100.00;99676.19;6274986;22;20349;-83
2023/12/02 16:47:25;;;;;;;;;;;;;;;7.85;100.00;99678.88;6248032;22;19911;-83
2023/12/02 16:49:51;;;;;;;;;;;;;;;7.86;100.00;99690.28;6275523;22;20327;-83
2023/12/02 16:52:16;;;;;;;;;;;;;;;7.85;100.00;99694.72;6276023;22;20277;-82
2023/12/02 16:54:41;;;;;;;;;;;;;;;7.86;100.00;99691.16;6273992;22;19972;-82
2023/12/02 16:57:25;;;;;;;;;;;;;;;7.87;100.00;99699.94;6275241;22;20293;-84
2023/12/02 16:59:51;;;;;;;;;;;;;;;7.88;100.00;99709.56;6275483;22;20332;-82
2023/12/02 17:02:29;;;;;;;;;;;;;;;7.89;100.00;99698.97;6275578;22;19994;-82
2023/12/02 17:04:54;;;;;;;;;;;;;;;7.90;100.00;99705.13;6275497;22;19911;-82
2023/12/02 17:07:19;;;;;;;;;;;;;;;7.85;100.00;99710.53;6275606;22;19947;-82
2023/12/02 17:09:44;;;;;;;;;;;;;;;6.31;100.00;99713.31;6273916;22;19915;-82
2023/12/02 17:12:11;;;;;;;;;;;;;;;5.87;100.00;99722.31;6275525;22;19915;-84
2023/12/02 17:14:36;;;;;;;;;;;;;;;5.53;100.00;99726.59;6275808;22;19911;-84
2023/12/02 17:17:02;;;;;;;;;;;;;;;5.33;100.00;99729.69;6275295;22;20014;-82
2023/12/02 17:19:30;;;;;;;;;;;;;;;5.23;100.00;99736.03;6275521;22;19922;-83
2023/12/02 17:21:58;;;;;;;;;;;;;;;5.13;100.00;99737.16;6275549;22;19911;-83
2023/12/02 17:24:30;;;;;;;;;;;;;;;4.98;100.00;99735.69;6274905;22;19923;-84
2023/12/02 17:26:56;;;;;;;;;;;;;;;4.96;100.00;99742.75;6250146;22;20350;-84
2023/12/02 17:29:24;;;;;;;;;;;;;;;4.84;100.00;99747.34;6277610;22;19918;-84
2023/12/02 17:31:49;;;;;;;;;;;;;;;4.76;100.00;99753.66;6277695;22;19920;-83
2023/12/02 17:34:15;;;;;;;;;;;;;;;4.72;100.00;99761.59;6277320;22;20004;-83
2023/12/02 17:36:40;;;;;;;;;;;;;;;4.61;100.00;99760.03;6276977;22;20324;-85
2023/12/02 17:39:05;;;;;;;;;;;;;;;4.52;100.00;99763.72;6248590;22;19912;-85
2023/12/02 17:41:30;;;;;;;;;;;;;;;4.50;100.00;99776.88;6278255;22;19954;-85
2023/12/02 17:43:56;;;;;;;;;;;;;;;4.39;100.00;99773.56;6277060;22;20316;-82
2023/12/02 17:46:24;;;;;;;;;;;;;;;4.73;100.00;99788.69;6277179;22;19993;-83